sensor_id;sensor_type;location;lat;lon;timestamp;temperature;humidity
22645;DHT22;11489;50.834;6.752;2023-05-07T00:01:26;13.90;95.50
22645;DHT22;11489;50.834;6.752;2023-05-07T00:03:51;13.90;95.50
22645;DHT22;11489;50.834;6.752;2023-05-07T00:06:17;13.90;95.50
22645;DHT22;11489;50.834;6.752;2023-05-07T00:08:42;13.90;95.40
22645;DHT22;11489;50.834;6.752;2023-05-07T00:11:08;13.90;95.40
22645;DHT22;11489;50.834;6.752;2023-05-07T00:13:34;14.00;95.40
22645;DHT22;11489;50.834;6.752;2023-05-07T00:16:03;13.90;95.40
22645;DHT22;11489;50.834;6.752;2023-05-07T00:18:29;13.90;95.40
22645;DHT22;11489;50.834;6.752;2023-05-07T00:20:55;13.90;95.40
22645;DHT22;11489;50.834;6.752;2023-05-07T00:23:22;13.90;95.40
22645;DHT22;11489;50.834;6.752;2023-05-07T00:25:47;13.90;95.40
22645;DHT22;11489;50.834;6.752;2023-05-07T00:28:13;13.90;95.40
22645;DHT22;11489;50.834;6.752;2023-05-07T00:30:39;13.90;95.40
22645;DHT22;11489;50.834;6.752;2023-05-07T00:33:04;13.90;95.40
22645;DHT22;11489;50.834;6.752;2023-05-07T00:35:30;13.90;95.40
22645;DHT22;11489;50.834;6.752;2023-05-07T00:37:57;13.90;95.40
22645;DHT22;11489;50.834;6.752;2023-05-07T00:40:23;13.90;95.50
22645;DHT22;11489;50.834;6.752;2023-05-07T00:42:49;13.90;95.50
22645;DHT22;11489;50.834;6.752;2023-05-07T00:45:15;13.90;95.50
22645;DHT22;11489;50.834;6.752;2023-05-07T00:47:42;13.80;95.50
22645;DHT22;11489;50.834;6.752;2023-05-07T00:50:08;13.90;95.50
22645;DHT22;11489;50.834;6.752;2023-05-07T00:52:38;13.90;95.50
22645;DHT22;11489;50.834;6.752;2023-05-07T00:55:05;13.80;95.50
22645;DHT22;11489;50.834;6.752;2023-05-07T00:57:39;13.90;95.60
22645;DHT22;11489;50.834;6.752;2023-05-07T01:00:06;13.80;95.50
22645;DHT22;11489;50.834;6.752;2023-05-07T01:02:33;13.80;95.60
22645;DHT22;11489;50.834;6.752;2023-05-07T01:05:00;13.80;95.60
22645;DHT22;11489;50.834;6.752;2023-05-07T01:07:26;13.80;95.60
22645;DHT22;11489;50.834;6.752;2023-05-07T01:09:52;13.80;95.60
22645;DHT22;11489;50.834;6.752;2023-05-07T01:12:19;13.80;95.60
22645;DHT22;11489;50.834;6.752;2023-05-07T01:14:44;13.80;95.60
22645;DHT22;11489;50.834;6.752;2023-05-07T01:17:10;13.80;95.60
22645;DHT22;11489;50.834;6.752;2023-05-07T01:19:36;13.90;95.60
22645;DHT22;11489;50.834;6.752;2023-05-07T01:22:09;13.80;95.60
22645;DHT22;11489;50.834;6.752;2023-05-07T01:24:37;13.90;95.60
22645;DHT22;11489;50.834;6.752;2023-05-07T01:27:03;13.80;95.60
22645;DHT22;11489;50.834;6.752;2023-05-07T01:29:29;13.80;95.60
22645;DHT22;11489;50.834;6.752;2023-05-07T01:31:57;13.80;95.60
22645;DHT22;11489;50.834;6.752;2023-05-07T01:34:25;13.80;95.70
22645;DHT22;11489;50.834;6.752;2023-05-07T01:36:54;13.80;95.70
22645;DHT22;11489;50.834;6.752;2023-05-07T01:39:31;13.80;95.70
22645;DHT22;11489;50.834;6.752;2023-05-07T01:41:58;13.80;95.60
22645;DHT22;11489;50.834;6.752;2023-05-07T01:44:25;13.80;95.70
22645;DHT22;11489;50.834;6.752;2023-05-07T01:46:51;13.80;95.60
22645;DHT22;11489;50.834;6.752;2023-05-07T01:49:18;13.80;95.60
22645;DHT22;11489;50.834;6.752;2023-05-07T01:51:44;13.80;95.60
22645;DHT22;11489;50.834;6.752;2023-05-07T01:54:09;13.80;95.60
22645;DHT22;11489;50.834;6.752;2023-05-07T01:56:35;13.80;95.60
22645;DHT22;11489;50.834;6.752;2023-05-07T01:59:01;13.80;95.50
22645;DHT22;11489;50.834;6.752;2023-05-07T02:01:27;13.80;95.50
22645;DHT22;11489;50.834;6.752;2023-05-07T02:03:53;13.80;95.60
22645;DHT22;11489;50.834;6.752;2023-05-07T02:06:19;13.80;95.50
22645;DHT22;11489;50.834;6.752;2023-05-07T02:08:45;13.70;95.50
22645;DHT22;11489;50.834;6.752;2023-05-07T02:11:11;13.80;95.60
22645;DHT22;11489;50.834;6.752;2023-05-07T02:13:37;13.70;95.50
22645;DHT22;11489;50.834;6.752;2023-05-07T02:16:03;13.70;95.50
22645;DHT22;11489;50.834;6.752;2023-05-07T02:18:29;13.70;95.50
22645;DHT22;11489;50.834;6.752;2023-05-07T02:20:54;13.70;95.50
22645;DHT22;11489;50.834;6.752;2023-05-07T02:23:20;13.70;95.50
22645;DHT22;11489;50.834;6.752;2023-05-07T02:25:46;13.70;95.50
22645;DHT22;11489;50.834;6.752;2023-05-07T02:28:12;13.70;95.50
22645;DHT22;11489;50.834;6.752;2023-05-07T02:30:38;13.70;95.50
22645;DHT22;11489;50.834;6.752;2023-05-07T02:33:05;13.70;95.50
22645;DHT22;11489;50.834;6.752;2023-05-07T02:35:31;13.70;95.50
22645;DHT22;11489;50.834;6.752;2023-05-07T02:37:57;13.70;95.50
22645;DHT22;11489;50.834;6.752;2023-05-07T02:40:23;13.70;95.50
22645;DHT22;11489;50.834;6.752;2023-05-07T02:42:48;13.70;95.40
22645;DHT22;11489;50.834;6.752;2023-05-07T02:45:14;13.60;95.40
22645;DHT22;11489;50.834;6.752;2023-05-07T02:47:40;13.60;95.40
22645;DHT22;11489;50.834;6.752;2023-05-07T02:50:06;13.60;95.40
22645;DHT22;11489;50.834;6.752;2023-05-07T02:52:32;13.60;95.40
22645;DHT22;11489;50.834;6.752;2023-05-07T02:54:57;13.60;95.40
22645;DHT22;11489;50.834;6.752;2023-05-07T02:57:23;13.60;95.40
22645;DHT22;11489;50.834;6.752;2023-05-07T02:59:49;13.60;95.40
22645;DHT22;11489;50.834;6.752;2023-05-07T03:02:14;13.60;95.40
22645;DHT22;11489;50.834;6.752;2023-05-07T03:04:40;13.60;95.40
22645;DHT22;11489;50.834;6.752;2023-05-07T03:07:06;13.50;95.30
22645;DHT22;11489;50.834;6.752;2023-05-07T03:09:32;13.50;95.20
22645;DHT22;11489;50.834;6.752;2023-05-07T03:11:57;13.40;95.20
22645;DHT22;11489;50.834;6.752;2023-05-07T03:14:23;13.40;95.20
22645;DHT22;11489;50.834;6.752;2023-05-07T03:16:49;13.40;95.10
22645;DHT22;11489;50.834;6.752;2023-05-07T03:19:15;13.40;95.10
22645;DHT22;11489;50.834;6.752;2023-05-07T03:21:41;13.30;95.10
22645;DHT22;11489;50.834;6.752;2023-05-07T03:24:06;13.30;95.10
22645;DHT22;11489;50.834;6.752;2023-05-07T03:26:32;13.30;95.10
22645;DHT22;11489;50.834;6.752;2023-05-07T03:28:58;13.20;95.10
22645;DHT22;11489;50.834;6.752;2023-05-07T03:31:23;13.20;95.20
22645;DHT22;11489;50.834;6.752;2023-05-07T03:33:51;13.20;95.20
22645;DHT22;11489;50.834;6.752;2023-05-07T03:36:17;13.20;95.30
22645;DHT22;11489;50.834;6.752;2023-05-07T03:38:43;13.10;95.40
22645;DHT22;11489;50.834;6.752;2023-05-07T03:41:09;13.10;95.50
22645;DHT22;11489;50.834;6.752;2023-05-07T03:43:34;13.10;95.50
22645;DHT22;11489;50.834;6.752;2023-05-07T03:46:00;13.10;95.60
22645;DHT22;11489;50.834;6.752;2023-05-07T03:48:25;13.10;95.60
22645;DHT22;11489;50.834;6.752;2023-05-07T03:50:51;13.10;95.60
22645;DHT22;11489;50.834;6.752;2023-05-07T03:53:17;13.10;95.50
22645;DHT22;11489;50.834;6.752;2023-05-07T03:55:42;13.10;95.50
22645;DHT22;11489;50.834;6.752;2023-05-07T03:58:08;13.10;95.50
22645;DHT22;11489;50.834;6.752;2023-05-07T04:00:34;13.10;95.60
22645;DHT22;11489;50.834;6.752;2023-05-07T04:03:04;13.10;95.60
22645;DHT22;11489;50.834;6.752;2023-05-07T04:05:30;13.10;95.70
22645;DHT22;11489;50.834;6.752;2023-05-07T04:07:57;13.10;95.70
22645;DHT22;11489;50.834;6.752;2023-05-07T04:10:23;13.10;95.80
22645;DHT22;11489;50.834;6.752;2023-05-07T04:12:48;13.10;95.80
22645;DHT22;11489;50.834;6.752;2023-05-07T04:15:14;13.10;95.90
22645;DHT22;11489;50.834;6.752;2023-05-07T04:17:40;13.20;96.00
22645;DHT22;11489;50.834;6.752;2023-05-07T04:20:09;13.10;96.00
22645;DHT22;11489;50.834;6.752;2023-05-07T04:22:36;13.20;96.00
22645;DHT22;11489;50.834;6.752;2023-05-07T04:25:02;13.20;96.00
22645;DHT22;11489;50.834;6.752;2023-05-07T04:27:28;13.20;96.00
22645;DHT22;11489;50.834;6.752;2023-05-07T04:29:54;13.30;96.50
22645;DHT22;11489;50.834;6.752;2023-05-07T04:32:22;13.30;96.30
22645;DHT22;11489;50.834;6.752;2023-05-07T04:34:47;13.40;96.30
22645;DHT22;11489;50.834;6.752;2023-05-07T04:37:13;13.40;96.20
22645;DHT22;11489;50.834;6.752;2023-05-07T04:39:39;13.50;96.20
22645;DHT22;11489;50.834;6.752;2023-05-07T04:42:04;13.50;96.10
22645;DHT22;11489;50.834;6.752;2023-05-07T04:44:32;13.50;96.00
22645;DHT22;11489;50.834;6.752;2023-05-07T04:46:58;13.50;96.00
22645;DHT22;11489;50.834;6.752;2023-05-07T04:49:24;13.60;96.00
22645;DHT22;11489;50.834;6.752;2023-05-07T04:51:50;13.60;95.90
22645;DHT22;11489;50.834;6.752;2023-05-07T04:54:15;13.60;95.90
22645;DHT22;11489;50.834;6.752;2023-05-07T04:56:41;13.60;95.90
22645;DHT22;11489;50.834;6.752;2023-05-07T04:59:07;13.60;95.90
22645;DHT22;11489;50.834;6.752;2023-05-07T05:01:32;13.60;95.90
22645;DHT22;11489;50.834;6.752;2023-05-07T05:03:58;13.60;96.00
22645;DHT22;11489;50.834;6.752;2023-05-07T05:06:25;13.60;96.10
22645;DHT22;11489;50.834;6.752;2023-05-07T05:08:51;13.70;96.20
22645;DHT22;11489;50.834;6.752;2023-05-07T05:11:17;13.70;96.30
22645;DHT22;11489;50.834;6.752;2023-05-07T05:13:42;13.80;96.40
22645;DHT22;11489;50.834;6.752;2023-05-07T05:16:08;13.90;96.50
22645;DHT22;11489;50.834;6.752;2023-05-07T05:18:34;13.90;96.70
22645;DHT22;11489;50.834;6.752;2023-05-07T05:21:00;14.00;96.30
22645;DHT22;11489;50.834;6.752;2023-05-07T05:23:27;14.00;96.30
22645;DHT22;11489;50.834;6.752;2023-05-07T05:25:57;14.10;96.30
22645;DHT22;11489;50.834;6.752;2023-05-07T05:28:25;14.10;96.30
22645;DHT22;11489;50.834;6.752;2023-05-07T05:30:51;14.20;96.30
22645;DHT22;11489;50.834;6.752;2023-05-07T05:33:17;14.20;96.30
22645;DHT22;11489;50.834;6.752;2023-05-07T05:35:42;14.30;96.30
22645;DHT22;11489;50.834;6.752;2023-05-07T05:38:08;14.40;96.30
22645;DHT22;11489;50.834;6.752;2023-05-07T05:40:34;14.40;96.20
22645;DHT22;11489;50.834;6.752;2023-05-07T05:43:00;14.40;96.20
22645;DHT22;11489;50.834;6.752;2023-05-07T05:45:25;14.50;96.20
22645;DHT22;11489;50.834;6.752;2023-05-07T05:47:51;14.60;96.20
22645;DHT22;11489;50.834;6.752;2023-05-07T05:50:17;14.60;96.20
22645;DHT22;11489;50.834;6.752;2023-05-07T05:52:42;14.70;96.30
22645;DHT22;11489;50.834;6.752;2023-05-07T05:55:08;14.70;96.30
22645;DHT22;11489;50.834;6.752;2023-05-07T05:57:34;14.80;96.40
22645;DHT22;11489;50.834;6.752;2023-05-07T06:00:01;14.90;96.60
22645;DHT22;11489;50.834;6.752;2023-05-07T06:02:28;15.00;96.70
22645;DHT22;11489;50.834;6.752;2023-05-07T06:04:53;15.10;96.60
22645;DHT22;11489;50.834;6.752;2023-05-07T06:07:19;15.10;96.50
22645;DHT22;11489;50.834;6.752;2023-05-07T06:09:45;15.20;96.60
22645;DHT22;11489;50.834;6.752;2023-05-07T06:12:11;15.30;96.60
22645;DHT22;11489;50.834;6.752;2023-05-07T06:14:36;15.40;96.50
22645;DHT22;11489;50.834;6.752;2023-05-07T06:17:02;15.60;96.60
22645;DHT22;11489;50.834;6.752;2023-05-07T06:19:28;15.60;96.70
22645;DHT22;11489;50.834;6.752;2023-05-07T06:21:54;15.80;96.80
22645;DHT22;11489;50.834;6.752;2023-05-07T06:24:22;16.00;96.90
22645;DHT22;11489;50.834;6.752;2023-05-07T06:26:48;16.10;96.80
22645;DHT22;11489;50.834;6.752;2023-05-07T06:29:13;16.20;96.70
22645;DHT22;11489;50.834;6.752;2023-05-07T06:31:39;16.40;96.60
22645;DHT22;11489;50.834;6.752;2023-05-07T06:34:05;16.50;96.60
22645;DHT22;11489;50.834;6.752;2023-05-07T06:36:30;16.60;96.40
22645;DHT22;11489;50.834;6.752;2023-05-07T06:38:56;16.70;96.30
22645;DHT22;11489;50.834;6.752;2023-05-07T06:41:22;16.80;96.20
22645;DHT22;11489;50.834;6.752;2023-05-07T06:43:48;17.00;96.30
22645;DHT22;11489;50.834;6.752;2023-05-07T06:46:13;17.10;96.30
22645;DHT22;11489;50.834;6.752;2023-05-07T06:48:39;17.20;96.30
22645;DHT22;11489;50.834;6.752;2023-05-07T06:51:05;17.30;96.40
22645;DHT22;11489;50.834;6.752;2023-05-07T06:53:30;17.50;96.40
22645;DHT22;11489;50.834;6.752;2023-05-07T06:55:56;17.60;96.20
22645;DHT22;11489;50.834;6.752;2023-05-07T06:58:22;17.70;96.20
22645;DHT22;11489;50.834;6.752;2023-05-07T07:00:48;17.90;96.10
22645;DHT22;11489;50.834;6.752;2023-05-07T07:03:14;18.00;96.00
22645;DHT22;11489;50.834;6.752;2023-05-07T07:05:42;18.10;95.90
22645;DHT22;11489;50.834;6.752;2023-05-07T07:08:09;18.30;95.60
22645;DHT22;11489;50.834;6.752;2023-05-07T07:10:35;18.40;95.70
22645;DHT22;11489;50.834;6.752;2023-05-07T07:13:01;18.50;95.60
22645;DHT22;11489;50.834;6.752;2023-05-07T07:15:26;18.60;95.70
22645;DHT22;11489;50.834;6.752;2023-05-07T07:17:52;18.70;95.60
22645;DHT22;11489;50.834;6.752;2023-05-07T07:20:18;18.80;95.40
22645;DHT22;11489;50.834;6.752;2023-05-07T07:22:43;18.90;95.50
22645;DHT22;11489;50.834;6.752;2023-05-07T07:25:09;19.00;95.70
22645;DHT22;11489;50.834;6.752;2023-05-07T07:27:35;19.20;95.50
22645;DHT22;11489;50.834;6.752;2023-05-07T07:30:01;19.30;95.20
22645;DHT22;11489;50.834;6.752;2023-05-07T07:32:27;19.40;94.90
22645;DHT22;11489;50.834;6.752;2023-05-07T07:34:52;19.50;94.70
22645;DHT22;11489;50.834;6.752;2023-05-07T07:37:18;19.50;94.50
22645;DHT22;11489;50.834;6.752;2023-05-07T07:39:43;19.60;94.50
22645;DHT22;11489;50.834;6.752;2023-05-07T07:42:09;19.60;94.40
22645;DHT22;11489;50.834;6.752;2023-05-07T07:44:35;19.70;94.40
22645;DHT22;11489;50.834;6.752;2023-05-07T07:47:00;19.70;94.40
22645;DHT22;11489;50.834;6.752;2023-05-07T07:49:26;19.80;94.40
22645;DHT22;11489;50.834;6.752;2023-05-07T07:51:52;19.90;94.50
22645;DHT22;11489;50.834;6.752;2023-05-07T07:54:18;19.90;94.20
22645;DHT22;11489;50.834;6.752;2023-05-07T07:56:43;20.00;94.20
22645;DHT22;11489;50.834;6.752;2023-05-07T07:59:09;20.00;93.60
22645;DHT22;11489;50.834;6.752;2023-05-07T08:01:35;20.00;93.80
22645;DHT22;11489;50.834;6.752;2023-05-07T08:04:00;20.00;93.60
22645;DHT22;11489;50.834;6.752;2023-05-07T08:06:28;20.00;93.40
22645;DHT22;11489;50.834;6.752;2023-05-07T08:08:54;20.00;93.40
22645;DHT22;11489;50.834;6.752;2023-05-07T08:11:20;20.00;93.40
22645;DHT22;11489;50.834;6.752;2023-05-07T08:13:47;20.00;93.70
22645;DHT22;11489;50.834;6.752;2023-05-07T08:16:13;20.10;93.90
22645;DHT22;11489;50.834;6.752;2023-05-07T08:18:39;20.20;94.10
22645;DHT22;11489;50.834;6.752;2023-05-07T08:21:04;20.20;94.10
22645;DHT22;11489;50.834;6.752;2023-05-07T08:23:30;20.30;94.10
22645;DHT22;11489;50.834;6.752;2023-05-07T08:25:56;20.40;93.70
22645;DHT22;11489;50.834;6.752;2023-05-07T08:28:22;20.50;93.40
22645;DHT22;11489;50.834;6.752;2023-05-07T08:30:50;20.50;93.30
22645;DHT22;11489;50.834;6.752;2023-05-07T08:33:15;20.50;93.40
22645;DHT22;11489;50.834;6.752;2023-05-07T08:35:41;20.60;93.70
22645;DHT22;11489;50.834;6.752;2023-05-07T08:38:07;20.60;93.70
22645;DHT22;11489;50.834;6.752;2023-05-07T08:40:37;20.80;93.80
22645;DHT22;11489;50.834;6.752;2023-05-07T08:43:05;20.90;93.50
22645;DHT22;11489;50.834;6.752;2023-05-07T08:45:33;21.10;94.10
22645;DHT22;11489;50.834;6.752;2023-05-07T08:48:02;21.30;94.40
22645;DHT22;11489;50.834;6.752;2023-05-07T08:50:29;21.50;94.00
22645;DHT22;11489;50.834;6.752;2023-05-07T08:52:55;21.60;93.70
22645;DHT22;11489;50.834;6.752;2023-05-07T08:55:22;21.70;93.40
22645;DHT22;11489;50.834;6.752;2023-05-07T08:57:48;21.80;93.10
22645;DHT22;11489;50.834;6.752;2023-05-07T09:00:15;22.00;93.10
22645;DHT22;11489;50.834;6.752;2023-05-07T09:02:41;22.00;93.20
22645;DHT22;11489;50.834;6.752;2023-05-07T09:05:07;22.10;92.90
22645;DHT22;11489;50.834;6.752;2023-05-07T09:07:32;22.20;92.70
22645;DHT22;11489;50.834;6.752;2023-05-07T09:10:00;22.30;93.10
22645;DHT22;11489;50.834;6.752;2023-05-07T09:12:26;22.40;93.50
22645;DHT22;11489;50.834;6.752;2023-05-07T09:14:52;22.50;93.30
22645;DHT22;11489;50.834;6.752;2023-05-07T09:17:17;22.70;93.10
22645;DHT22;11489;50.834;6.752;2023-05-07T09:19:46;22.80;92.60
22645;DHT22;11489;50.834;6.752;2023-05-07T09:22:13;22.90;91.90
22645;DHT22;11489;50.834;6.752;2023-05-07T09:24:39;22.90;91.80
22645;DHT22;11489;50.834;6.752;2023-05-07T09:27:05;22.90;91.60
22645;DHT22;11489;50.834;6.752;2023-05-07T09:29:31;22.90;91.90
22645;DHT22;11489;50.834;6.752;2023-05-07T09:32:05;22.90;92.30
22645;DHT22;11489;50.834;6.752;2023-05-07T09:34:31;23.00;92.50
22645;DHT22;11489;50.834;6.752;2023-05-07T09:37:04;23.10;92.70
22645;DHT22;11489;50.834;6.752;2023-05-07T09:39:44;23.30;91.50
22645;DHT22;11489;50.834;6.752;2023-05-07T09:42:10;23.50;90.80
22645;DHT22;11489;50.834;6.752;2023-05-07T09:44:38;23.70;92.30
22645;DHT22;11489;50.834;6.752;2023-05-07T09:47:07;23.80;91.50
22645;DHT22;11489;50.834;6.752;2023-05-07T09:49:35;23.80;90.60
22645;DHT22;11489;50.834;6.752;2023-05-07T09:52:03;23.90;91.40
22645;DHT22;11489;50.834;6.752;2023-05-07T09:54:32;24.00;91.70
22645;DHT22;11489;50.834;6.752;2023-05-07T09:56:59;24.10;92.10
22645;DHT22;11489;50.834;6.752;2023-05-07T09:59:28;24.40;92.20
22645;DHT22;11489;50.834;6.752;2023-05-07T10:01:57;24.60;91.60
22645;DHT22;11489;50.834;6.752;2023-05-07T10:04:25;24.80;91.00
22645;DHT22;11489;50.834;6.752;2023-05-07T10:06:51;24.90;91.30
22645;DHT22;11489;50.834;6.752;2023-05-07T10:09:17;25.10;91.40
22645;DHT22;11489;50.834;6.752;2023-05-07T10:11:43;25.30;91.20
22645;DHT22;11489;50.834;6.752;2023-05-07T10:14:10;25.50;90.80
22645;DHT22;11489;50.834;6.752;2023-05-07T10:16:36;25.70;90.60
22645;DHT22;11489;50.834;6.752;2023-05-07T10:19:03;25.80;90.00
22645;DHT22;11489;50.834;6.752;2023-05-07T10:21:30;25.80;88.00
22645;DHT22;11489;50.834;6.752;2023-05-07T10:24:04;25.80;87.50
22645;DHT22;11489;50.834;6.752;2023-05-07T10:26:32;25.80;87.60
22645;DHT22;11489;50.834;6.752;2023-05-07T10:29:05;25.70;87.80
22645;DHT22;11489;50.834;6.752;2023-05-07T10:34:47;25.80;83.40
22645;DHT22;11489;50.834;6.752;2023-05-07T10:37:14;25.90;87.70
22645;DHT22;11489;50.834;6.752;2023-05-07T10:39:41;26.10;87.40
22645;DHT22;11489;50.834;6.752;2023-05-07T10:42:16;26.10;84.90
22645;DHT22;11489;50.834;6.752;2023-05-07T10:44:42;26.00;82.00
22645;DHT22;11489;50.834;6.752;2023-05-07T10:47:09;25.90;84.80
22645;DHT22;11489;50.834;6.752;2023-05-07T10:52:16;25.70;83.00
22645;DHT22;11489;50.834;6.752;2023-05-07T10:54:42;25.70;83.10
22645;DHT22;11489;50.834;6.752;2023-05-07T10:59:56;25.80;80.90
22645;DHT22;11489;50.834;6.752;2023-05-07T11:02:22;25.80;85.90
22645;DHT22;11489;50.834;6.752;2023-05-07T11:05:22;25.90;84.80
22645;DHT22;11489;50.834;6.752;2023-05-07T11:08:01;25.90;79.30
22645;DHT22;11489;50.834;6.752;2023-05-07T11:10:49;25.90;81.90
22645;DHT22;11489;50.834;6.752;2023-05-07T11:13:16;25.90;80.70
22645;DHT22;11489;50.834;6.752;2023-05-07T11:15:43;25.90;85.10
22645;DHT22;11489;50.834;6.752;2023-05-07T11:18:11;26.10;85.30
22645;DHT22;11489;50.834;6.752;2023-05-07T11:20:57;26.10;84.90
22645;DHT22;11489;50.834;6.752;2023-05-07T11:26:06;26.30;80.30
22645;DHT22;11489;50.834;6.752;2023-05-07T11:28:37;26.40;82.10
22645;DHT22;11489;50.834;6.752;2023-05-07T11:31:03;26.40;82.30
22645;DHT22;11489;50.834;6.752;2023-05-07T11:33:33;26.50;84.10
22645;DHT22;11489;50.834;6.752;2023-05-07T11:36:00;26.60;81.60
22645;DHT22;11489;50.834;6.752;2023-05-07T11:38:28;26.70;82.90
22645;DHT22;11489;50.834;6.752;2023-05-07T11:40:59;26.80;81.90
22645;DHT22;11489;50.834;6.752;2023-05-07T11:43:30;26.90;80.10
22645;DHT22;11489;50.834;6.752;2023-05-07T11:46:08;26.90;81.10
22645;DHT22;11489;50.834;6.752;2023-05-07T11:48:34;27.00;76.90
22645;DHT22;11489;50.834;6.752;2023-05-07T11:51:02;27.00;80.00
22645;DHT22;11489;50.834;6.752;2023-05-07T11:53:38;26.90;79.50
22645;DHT22;11489;50.834;6.752;2023-05-07T11:56:12;26.80;76.00
22645;DHT22;11489;50.834;6.752;2023-05-07T11:58:39;26.70;75.70
22645;DHT22;11489;50.834;6.752;2023-05-07T12:01:08;26.50;77.40
22645;DHT22;11489;50.834;6.752;2023-05-07T12:03:35;26.30;76.00
22645;DHT22;11489;50.834;6.752;2023-05-07T12:06:05;26.00;76.70
22645;DHT22;11489;50.834;6.752;2023-05-07T12:08:30;25.70;76.80
22645;DHT22;11489;50.834;6.752;2023-05-07T12:10:56;25.60;77.10
22645;DHT22;11489;50.834;6.752;2023-05-07T12:13:23;25.30;77.10
22645;DHT22;11489;50.834;6.752;2023-05-07T12:15:53;25.10;76.80
22645;DHT22;11489;50.834;6.752;2023-05-07T12:18:20;24.90;75.60
22645;DHT22;11489;50.834;6.752;2023-05-07T12:20:46;24.70;76.90
22645;DHT22;11489;50.834;6.752;2023-05-07T12:23:12;24.50;76.80
22645;DHT22;11489;50.834;6.752;2023-05-07T12:25:40;24.30;76.80
22645;DHT22;11489;50.834;6.752;2023-05-07T12:28:16;24.10;77.00
22645;DHT22;11489;50.834;6.752;2023-05-07T12:30:44;24.00;76.10
22645;DHT22;11489;50.834;6.752;2023-05-07T12:33:10;23.80;77.60
22645;DHT22;11489;50.834;6.752;2023-05-07T12:35:38;23.70;77.70
22645;DHT22;11489;50.834;6.752;2023-05-07T12:38:09;23.60;77.90
22645;DHT22;11489;50.834;6.752;2023-05-07T12:40:44;23.40;77.80
22645;DHT22;11489;50.834;6.752;2023-05-07T12:43:28;23.30;77.60
22645;DHT22;11489;50.834;6.752;2023-05-07T12:45:56;23.10;77.20
22645;DHT22;11489;50.834;6.752;2023-05-07T12:48:22;23.00;78.80
22645;DHT22;11489;50.834;6.752;2023-05-07T12:50:55;22.80;78.80
22645;DHT22;11489;50.834;6.752;2023-05-07T12:53:22;22.60;78.30
22645;DHT22;11489;50.834;6.752;2023-05-07T12:55:50;22.40;78.70
22645;DHT22;11489;50.834;6.752;2023-05-07T12:58:30;22.20;79.30
22645;DHT22;11489;50.834;6.752;2023-05-07T13:00:59;21.80;79.90
22645;DHT22;11489;50.834;6.752;2023-05-07T13:05:53;21.20;82.50
22645;DHT22;11489;50.834;6.752;2023-05-07T13:08:34;21.00;83.40
22645;DHT22;11489;50.834;6.752;2023-05-07T13:11:02;20.70;84.30
22645;DHT22;11489;50.834;6.752;2023-05-07T13:13:33;20.50;84.90
22645;DHT22;11489;50.834;6.752;2023-05-07T13:16:00;20.30;85.70
22645;DHT22;11489;50.834;6.752;2023-05-07T13:18:26;20.10;86.10
22645;DHT22;11489;50.834;6.752;2023-05-07T13:20:53;19.90;86.60
22645;DHT22;11489;50.834;6.752;2023-05-07T13:23:19;19.80;87.20
22645;DHT22;11489;50.834;6.752;2023-05-07T13:25:44;19.70;88.10
22645;DHT22;11489;50.834;6.752;2023-05-07T13:28:10;19.60;88.30
22645;DHT22;11489;50.834;6.752;2023-05-07T13:30:36;19.50;88.60
22645;DHT22;11489;50.834;6.752;2023-05-07T13:33:22;19.40;89.00
22645;DHT22;11489;50.834;6.752;2023-05-07T13:35:57;19.40;89.60
22645;DHT22;11489;50.834;6.752;2023-05-07T13:38:23;19.30;90.10
22645;DHT22;11489;50.834;6.752;2023-05-07T13:40:52;19.30;90.40
22645;DHT22;11489;50.834;6.752;2023-05-07T13:43:18;19.30;90.60
22645;DHT22;11489;50.834;6.752;2023-05-07T13:45:44;19.30;90.60
22645;DHT22;11489;50.834;6.752;2023-05-07T13:48:10;19.30;90.60
22645;DHT22;11489;50.834;6.752;2023-05-07T13:50:35;19.30;90.50
22645;DHT22;11489;50.834;6.752;2023-05-07T13:53:04;19.30;90.40
22645;DHT22;11489;50.834;6.752;2023-05-07T13:55:33;19.20;90.30
22645;DHT22;11489;50.834;6.752;2023-05-07T13:58:02;19.20;90.50
22645;DHT22;11489;50.834;6.752;2023-05-07T14:00:28;19.10;90.60
22645;DHT22;11489;50.834;6.752;2023-05-07T14:02:55;19.00;90.70
22645;DHT22;11489;50.834;6.752;2023-05-07T14:05:21;19.00;90.90
22645;DHT22;11489;50.834;6.752;2023-05-07T14:07:51;18.90;91.30
22645;DHT22;11489;50.834;6.752;2023-05-07T14:10:18;18.90;91.20
22645;DHT22;11489;50.834;6.752;2023-05-07T14:12:44;18.90;91.10
22645;DHT22;11489;50.834;6.752;2023-05-07T14:15:11;18.90;91.10
22645;DHT22;11489;50.834;6.752;2023-05-07T14:17:37;18.80;91.10
22645;DHT22;11489;50.834;6.752;2023-05-07T14:20:03;18.70;91.10
22645;DHT22;11489;50.834;6.752;2023-05-07T14:22:29;18.70;91.10
22645;DHT22;11489;50.834;6.752;2023-05-07T14:24:54;18.60;91.00
22645;DHT22;11489;50.834;6.752;2023-05-07T14:27:20;18.60;91.20
22645;DHT22;11489;50.834;6.752;2023-05-07T14:29:48;18.60;91.30
22645;DHT22;11489;50.834;6.752;2023-05-07T14:32:20;18.50;91.40
22645;DHT22;11489;50.834;6.752;2023-05-07T14:34:52;18.50;91.50
22645;DHT22;11489;50.834;6.752;2023-05-07T14:37:17;18.50;91.50
22645;DHT22;11489;50.834;6.752;2023-05-07T14:39:45;18.50;91.90
22645;DHT22;11489;50.834;6.752;2023-05-07T14:42:10;18.50;92.00
22645;DHT22;11489;50.834;6.752;2023-05-07T14:44:37;18.50;92.10
22645;DHT22;11489;50.834;6.752;2023-05-07T14:47:05;18.60;92.10
22645;DHT22;11489;50.834;6.752;2023-05-07T14:49:31;18.60;92.20
22645;DHT22;11489;50.834;6.752;2023-05-07T14:52:06;18.60;92.30
22645;DHT22;11489;50.834;6.752;2023-05-07T14:54:34;18.70;92.50
22645;DHT22;11489;50.834;6.752;2023-05-07T14:57:01;18.80;92.50
22645;DHT22;11489;50.834;6.752;2023-05-07T14:59:29;18.90;92.30
22645;DHT22;11489;50.834;6.752;2023-05-07T15:01:55;19.00;92.20
22645;DHT22;11489;50.834;6.752;2023-05-07T15:04:21;19.00;92.10
22645;DHT22;11489;50.834;6.752;2023-05-07T15:06:47;19.10;92.00
22645;DHT22;11489;50.834;6.752;2023-05-07T15:09:12;19.10;91.80
22645;DHT22;11489;50.834;6.752;2023-05-07T15:11:38;19.20;91.70
22645;DHT22;11489;50.834;6.752;2023-05-07T15:14:11;19.20;91.70
22645;DHT22;11489;50.834;6.752;2023-05-07T15:16:36;19.30;91.60
22645;DHT22;11489;50.834;6.752;2023-05-07T15:19:02;19.20;91.50
22645;DHT22;11489;50.834;6.752;2023-05-07T15:21:28;19.30;91.50
22645;DHT22;11489;50.834;6.752;2023-05-07T15:23:53;19.30;91.50
22645;DHT22;11489;50.834;6.752;2023-05-07T15:26:19;19.20;91.50
22645;DHT22;11489;50.834;6.752;2023-05-07T15:28:48;19.20;91.70
22645;DHT22;11489;50.834;6.752;2023-05-07T15:31:14;19.20;91.80
22645;DHT22;11489;50.834;6.752;2023-05-07T15:33:40;19.20;91.90
22645;DHT22;11489;50.834;6.752;2023-05-07T15:36:06;19.20;91.90
22645;DHT22;11489;50.834;6.752;2023-05-07T15:38:31;19.20;91.90
22645;DHT22;11489;50.834;6.752;2023-05-07T15:40:57;19.20;91.90
22645;DHT22;11489;50.834;6.752;2023-05-07T15:43:23;19.20;91.90